Time;durP1;ratioP1;P1;durP2;ratioP2;P2;SDS_P1;SDS_P2;PMS_P1;PMS_P2;Temp;Humidity;BMP_temperature;BMP_pressure;BME280_temperature;BME280_humidity;BME280_pressure;Samples;Min_cycle;Max_cycle;Signal;HPM_P1;HPM_P2
2022/04/19 00:01:11;;;;;;;1400.07;999.90;;;11.10;99.90;;;;;;5083265;28;20184;-69
2022/04/19 00:03:37;;;;;;;1390.17;999.90;;;11.20;99.90;;;;;;5076544;28;20196;-68
2022/04/19 00:06:06;;;;;;;1391.40;999.90;;;11.10;99.90;;;;;;5060360;28;20272;-68
2022/04/19 00:08:32;;;;;;;1382.03;999.90;;;11.10;99.90;;;;;;5077354;28;20267;-68
2022/04/19 00:10:59;;;;;;;1376.37;999.90;;;11.20;99.90;;;;;;5075936;28;20275;-68
2022/04/19 00:13:25;;;;;;;1369.47;999.90;;;11.10;99.90;;;;;;5077002;28;20223;-68
2022/04/19 00:15:51;;;;;;;1375.30;999.90;;;11.10;99.90;;;;;;5060399;28;20188;-68
2022/04/19 00:18:19;;;;;;;1363.10;999.90;;;11.00;99.90;;;;;;5077656;28;20275;-68
2022/04/19 00:20:44;;;;;;;1357.53;999.90;;;11.00;99.90;;;;;;5076672;28;20673;-68
2022/04/19 00:23:15;;;;;;;1340.87;999.90;;;11.00;99.90;;;;;;5059225;28;20185;-69
2022/04/19 00:25:42;;;;;;;1326.87;999.90;;;11.10;99.90;;;;;;5076900;28;20190;-68
2022/04/19 00:28:09;;;;;;;1316.63;999.90;;;11.00;99.90;;;;;;5076532;28;20687;-67
2022/04/19 00:30:35;;;;;;;1313.37;999.90;;;11.00;99.90;;;;;;5077046;28;20180;-68
2022/04/19 00:33:01;;;;;;;1304.57;999.90;;;10.90;99.90;;;;;;5061064;28;20514;-68
2022/04/19 00:35:28;;;;;;;1299.57;999.90;;;10.90;99.90;;;;;;5076782;28;20189;-68
2022/04/19 00:37:54;;;;;;;1294.67;999.90;;;10.90;99.90;;;;;;5060361;28;20197;-68
2022/04/19 00:40:19;;;;;;;1293.40;999.90;;;10.90;99.90;;;;;;5060456;28;20192;-68
2022/04/19 00:42:47;;;;;;;1295.00;999.90;;;10.80;99.90;;;;;;5060436;28;20188;-68
2022/04/19 00:45:13;;;;;;;1287.67;999.90;;;10.80;99.90;;;;;;5075956;28;20275;-68
2022/04/19 00:47:39;;;;;;;1292.83;999.90;;;10.80;99.90;;;;;;5095212;28;20191;-68
2022/04/19 00:50:06;;;;;;;1264.97;999.90;;;10.80;99.90;;;;;;5061836;28;20646;-68
2022/04/19 00:52:34;;;;;;;1266.37;999.90;;;10.90;99.90;;;;;;5060314;28;20226;-68
2022/04/19 00:55:01;;;;;;;1250.07;999.90;;;10.90;99.90;;;;;;5076505;28;20208;-68
2022/04/19 00:57:28;;;;;;;1253.70;999.90;;;10.80;99.90;;;;;;5043187;28;20195;-68
2022/04/19 00:59:55;;;;;;;1235.93;999.90;;;10.70;99.90;;;;;;5059547;28;20200;-68
2022/04/19 01:02:21;;;;;;;1235.60;999.90;;;10.70;99.90;;;;;;5072733;28;20634;-67
2022/04/19 01:04:47;;;;;;;1223.53;999.90;;;10.70;99.90;;;;;;5069626;28;20238;-67
2022/04/19 01:07:13;;;;;;;1207.43;999.90;;;10.70;99.90;;;;;;5075995;28;20188;-67
2022/04/19 01:09:39;;;;;;;1201.30;999.90;;;10.70;99.90;;;;;;5059802;28;20185;-67
2022/04/19 01:14:55;;;;;;;1179.43;999.90;;;10.60;99.90;;;;;;5077819;28;20231;-67
2022/04/19 01:17:21;;;;;;;1175.53;999.90;;;10.60;99.90;;;;;;5059530;28;20212;-69
2022/04/19 01:19:47;;;;;;;1161.77;999.90;;;10.60;99.90;;;;;;5059436;28;20565;-67
2022/04/19 01:22:13;;;;;;;1165.23;999.90;;;10.50;99.90;;;;;;5093884;28;20180;-67
2022/04/19 01:24:39;;;;;;;1161.60;999.90;;;10.50;99.90;;;;;;5093069;28;20208;-68
2022/04/19 01:27:05;;;;;;;1153.00;999.90;;;10.50;99.90;;;;;;5075646;28;20185;-67
2022/04/19 01:29:33;;;;;;;1135.90;999.90;;;10.50;99.90;;;;;;5074387;28;20567;-67
2022/04/19 01:32:02;;;;;;;1117.37;999.90;;;10.40;99.90;;;;;;5075885;28;20593;-70
2022/04/19 01:34:27;;;;;;;1069.20;992.93;;;10.40;99.90;;;;;;5092115;28;20529;-67
2022/04/19 01:36:53;;;;;;;1047.10;973.63;;;10.40;99.90;;;;;;5059272;28;20188;-67
2022/04/19 01:40:16;;;;;;;1025.97;955.47;;;10.40;99.90;;;;;;5065434;28;20194;-67
2022/04/19 01:42:06;;;;;;;983.10;917.90;;;10.40;99.90;;;;;;5085477;28;20196;-67
2022/04/19 01:44:33;;;;;;;972.80;908.17;;;10.30;99.90;;;;;;5075712;28;20574;-68
2022/04/19 01:47:00;;;;;;;957.27;894.47;;;10.30;99.90;;;;;;5075619;28;20196;-68
2022/04/19 01:49:26;;;;;;;942.03;880.97;;;10.30;99.90;;;;;;5074848;28;20193;-68
2022/04/19 01:51:52;;;;;;;582.90;553.83;;;10.20;99.90;;;;;;5094089;28;20199;-69
2022/04/19 01:54:17;;;;;;;487.80;464.67;;;10.30;99.90;;;;;;5075657;28;20213;-67
2022/04/19 01:56:44;;;;;;;426.47;406.83;;;10.20;99.90;;;;;;5072936;28;20275;-68
2022/04/19 01:59:10;;;;;;;287.30;274.33;;;10.20;99.90;;;;;;5075049;28;20287;-68
2022/04/19 02:01:35;;;;;;;205.47;195.80;;;10.20;99.90;;;;;;5093710;28;20287;-68
2022/04/19 02:04:01;;;;;;;151.97;143.53;;;10.20;99.90;;;;;;5075164;28;20189;-68
2022/04/19 02:06:27;;;;;;;130.37;122.53;;;10.20;99.90;;;;;;5074943;28;20576;-67
2022/04/19 02:08:53;;;;;;;117.63;109.83;;;10.10;99.90;;;;;;5093897;28;20512;-67
2022/04/19 02:11:18;;;;;;;99.67;91.77;;;10.00;99.90;;;;;;5075056;28;20210;-67
2022/04/19 02:13:44;;;;;;;105.33;97.67;;;10.00;99.90;;;;;;5073526;28;20303;-67
2022/04/19 02:16:10;;;;;;;122.50;114.13;;;10.00;99.90;;;;;;5092929;28;20185;-67
2022/04/19 02:18:35;;;;;;;136.87;128.23;;;10.00;99.90;;;;;;5074866;28;20188;-67
2022/04/19 02:21:01;;;;;;;139.80;131.83;;;9.80;99.90;;;;;;5074596;28;20181;-67
2022/04/19 02:23:27;;;;;;;133.13;124.63;;;9.80;99.90;;;;;;5075382;28;20652;-69
2022/04/19 02:25:55;;;;;;;176.10;165.93;;;9.90;99.90;;;;;;5093637;28;20267;-67
2022/04/19 02:28:21;;;;;;;180.93;170.97;;;9.90;99.90;;;;;;5074114;28;20192;-67
2022/04/19 02:30:47;;;;;;;209.13;197.77;;;9.90;99.90;;;;;;5074505;28;20314;-66
2022/04/19 02:33:13;;;;;;;245.33;233.00;;;9.90;99.90;;;;;;5074965;28;20647;-67
2022/04/19 02:35:39;;;;;;;314.03;298.73;;;9.90;99.90;;;;;;5056964;28;20188;-67
2022/04/19 02:38:05;;;;;;;351.67;334.70;;;9.80;99.90;;;;;;5075362;28;20180;-67
2022/04/19 02:40:31;;;;;;;357.80;340.53;;;9.90;99.90;;;;;;5075139;28;20543;-67
2022/04/19 02:42:57;;;;;;;348.30;331.30;;;9.80;99.90;;;;;;5092572;28;20227;-67
2022/04/19 02:45:23;;;;;;;357.17;340.10;;;9.80;99.90;;;;;;5074636;28;20192;-71
2022/04/19 02:48:05;;;;;;;347.73;330.67;;;9.70;99.90;;;;;;5091941;28;20185;-67
2022/04/19 02:50:41;;;;;;;374.93;357.00;;;9.70;99.90;;;;;;5086975;28;20653;-67
2022/04/19 02:53:07;;;;;;;310.77;295.30;;;9.70;99.90;;;;;;5075844;28;20659;-66
2022/04/19 02:55:35;;;;;;;314.03;298.67;;;9.60;99.90;;;;;;5074880;28;20189;-72
2022/04/19 02:58:00;;;;;;;358.17;340.63;;;9.50;99.90;;;;;;5074331;28;20548;-67
2022/04/19 03:00:26;;;;;;;1036.70;958.57;;;9.60;99.90;;;;;;5073442;28;20210;-67
2022/04/19 03:02:52;;;;;;;1076.97;988.63;;;9.50;99.90;;;;;;5074628;28;20189;-67
2022/04/19 03:05:18;;;;;;;1082.30;992.10;;;9.50;99.90;;;;;;5073363;28;20699;-67
2022/04/19 03:07:44;;;;;;;1050.83;968.83;;;9.50;99.90;;;;;;5073039;28;20187;-68
2022/04/19 03:10:10;;;;;;;1032.33;953.80;;;9.50;99.90;;;;;;5074708;28;20176;-68
2022/04/19 03:12:36;;;;;;;985.20;912.83;;;9.40;99.90;;;;;;5055547;28;20188;-68
2022/04/19 03:15:02;;;;;;;982.67;909.30;;;9.40;99.90;;;;;;5058005;28;20212;-68
2022/04/19 03:17:27;;;;;;;1012.23;933.23;;;9.30;99.90;;;;;;5074083;28;20181;-68
2022/04/19 03:19:54;;;;;;;1077.63;988.73;;;9.30;99.90;;;;;;5092187;28;20237;-68
2022/04/19 03:22:19;;;;;;;1073.87;985.30;;;9.30;99.90;;;;;;5073894;28;20185;-68
2022/04/19 03:27:44;;;;;;;1041.13;957.67;;;9.30;99.90;;;;;;5092200;28;20196;-68
2022/04/19 03:30:14;;;;;;;1030.47;948.90;;;9.30;99.90;;;;;;5076963;28;20212;-67
2022/04/19 03:32:43;;;;;;;1064.50;977.20;;;9.20;99.90;;;;;;5056906;28;20197;-67
2022/04/19 03:35:10;;;;;;;1010.70;933.50;;;9.20;99.90;;;;;;5074312;28;20211;-68
2022/04/19 03:37:38;;;;;;;1062.03;977.20;;;9.10;99.90;;;;;;5057710;28;20185;-73
2022/04/19 03:40:04;;;;;;;1088.83;994.03;;;9.10;99.90;;;;;;5094806;28;20177;-68
2022/04/19 03:42:30;;;;;;;1106.30;999.90;;;9.10;99.90;;;;;;5060819;28;20233;-69
2022/04/19 03:44:56;;;;;;;1085.00;993.63;;;9.10;99.90;;;;;;5073873;28;20200;-68
2022/04/19 03:47:21;;;;;;;1058.23;975.27;;;9.10;99.90;;;;;;5077941;28;20238;-68
2022/04/19 03:49:47;;;;;;;991.03;918.87;;;9.10;99.90;;;;;;5067419;28;20191;-68
2022/04/19 03:52:14;;;;;;;794.20;744.23;;;9.00;99.90;;;;;;5080737;28;20716;-68
2022/04/19 03:54:39;;;;;;;798.07;748.37;;;9.00;99.90;;;;;;5067009;28;20216;-68
2022/04/19 03:57:08;;;;;;;753.23;707.47;;;9.00;99.90;;;;;;5079772;28;20586;-68
2022/04/19 03:59:37;;;;;;;708.47;665.63;;;9.00;99.90;;;;;;5077188;28;20253;-68
2022/04/19 04:02:04;;;;;;;731.77;687.27;;;9.00;99.90;;;;;;5095166;28;20184;-68
2022/04/19 04:04:34;;;;;;;729.10;684.33;;;9.00;99.90;;;;;;5095587;28;20200;-68
2022/04/19 04:07:04;;;;;;;708.07;665.80;;;9.00;99.90;;;;;;5061957;28;20295;-68
2022/04/19 04:09:35;;;;;;;674.93;634.87;;;9.00;99.90;;;;;;5076801;28;20193;-68
2022/04/19 04:12:03;;;;;;;659.50;620.20;;;8.90;99.90;;;;;;5094442;28;20176;-68
2022/04/19 04:14:29;;;;;;;565.03;533.03;;;8.90;99.90;;;;;;5078001;28;20216;-68
2022/04/19 04:16:55;;;;;;;574.93;541.90;;;8.90;99.90;;;;;;5077380;28;20242;-68
2022/04/19 04:19:21;;;;;;;573.67;540.90;;;8.90;99.90;;;;;;5076162;28;20172;-68
2022/04/19 04:21:47;;;;;;;580.10;546.47;;;8.90;99.90;;;;;;5065554;28;20709;-68
2022/04/19 04:24:13;;;;;;;602.57;567.37;;;8.80;99.90;;;;;;5068678;28;20650;-67
2022/04/19 04:26:38;;;;;;;604.40;568.70;;;8.80;99.90;;;;;;5076138;28;20240;-68
2022/04/19 04:29:04;;;;;;;614.77;579.20;;;8.80;99.90;;;;;;5094909;28;20263;-68
2022/04/19 04:31:32;;;;;;;608.43;573.50;;;8.80;99.90;;;;;;5094834;28;20290;-68
2022/04/19 04:33:58;;;;;;;562.87;530.93;;;8.80;99.90;;;;;;5095021;28;20217;-68
2022/04/19 04:36:23;;;;;;;592.60;558.87;;;8.80;99.90;;;;;;5076454;28;20194;-68
2022/04/19 04:38:49;;;;;;;542.07;511.53;;;8.80;99.90;;;;;;5053408;28;20185;-68
2022/04/19 04:41:15;;;;;;;555.80;524.87;;;8.80;99.90;;;;;;5077092;28;20242;-68
2022/04/19 04:43:41;;;;;;;574.17;541.07;;;8.70;99.90;;;;;;5059017;28;20611;-68
2022/04/19 04:51:35;;;;;;;594.63;560.40;;;8.70;99.90;;;;;;5077252;28;20196;-67
2022/04/19 04:54:01;;;;;;;667.90;628.33;;;8.70;99.90;;;;;;5076743;28;20217;-67
2022/04/19 04:56:26;;;;;;;703.33;660.87;;;8.70;99.90;;;;;;5094786;28;20211;-67
2022/04/19 04:58:52;;;;;;;744.43;698.73;;;8.70;99.90;;;;;;5094089;28;20318;-67
2022/04/19 05:01:18;;;;;;;784.33;735.53;;;8.70;99.90;;;;;;5077083;28;20173;-70
2022/04/19 05:03:44;;;;;;;756.53;710.00;;;8.80;99.90;;;;;;5092437;28;20200;-67
2022/04/19 05:06:09;;;;;;;791.50;742.67;;;8.80;99.90;;;;;;5066530;28;20182;-67
2022/04/19 05:08:35;;;;;;;798.63;748.50;;;8.80;99.90;;;;;;5089418;28;20703;-68
2022/04/19 05:11:03;;;;;;;813.17;761.57;;;8.90;99.90;;;;;;5094931;28;20181;-67
2022/04/19 05:13:29;;;;;;;829.63;776.80;;;8.90;99.90;;;;;;5093537;28;20286;-72
2022/04/19 05:15:58;;;;;;;835.33;781.43;;;8.90;99.90;;;;;;5075534;28;20185;-67
2022/04/19 05:18:24;;;;;;;842.20;788.13;;;9.00;99.90;;;;;;5093893;28;20173;-67
2022/04/19 05:20:50;;;;;;;850.00;795.63;;;9.10;99.90;;;;;;5058892;28;20234;-65
2022/04/19 05:23:16;;;;;;;861.40;805.57;;;9.10;99.90;;;;;;5093610;28;20376;-69
2022/04/19 05:25:41;;;;;;;881.27;822.57;;;9.20;99.90;;;;;;5075910;28;20192;-69
2022/04/19 05:28:07;;;;;;;899.27;838.97;;;9.30;99.90;;;;;;5050164;28;20188;-69
2022/04/19 05:30:33;;;;;;;924.67;862.30;;;9.30;99.90;;;;;;5093575;28;20192;-68
2022/04/19 05:32:58;;;;;;;933.97;870.07;;;9.40;99.90;;;;;;5080795;28;20243;-67
2022/04/19 05:35:27;;;;;;;935.73;871.70;;;9.50;99.90;;;;;;5078655;28;20225;-70
2022/04/19 05:37:54;;;;;;;937.00;871.93;;;9.60;99.90;;;;;;5075765;28;20650;-64
2022/04/19 05:40:19;;;;;;;994.00;922.83;;;9.70;99.90;;;;;;5075556;28;20628;-65
2022/04/19 05:42:45;;;;;;;983.60;913.80;;;9.90;99.90;;;;;;5075043;28;20267;-67
2022/04/19 05:45:10;;;;;;;979.33;909.63;;;10.00;99.90;;;;;;5063825;28;20223;-68
2022/04/19 05:47:37;;;;;;;986.80;916.20;;;10.20;99.90;;;;;;5074269;28;20413;-68
2022/04/19 05:50:03;;;;;;;1033.93;953.60;;;10.40;99.90;;;;;;5090486;28;20185;-68
2022/04/19 05:52:28;;;;;;;1142.00;999.90;;;10.60;99.90;;;;;;5069538;28;20642;-67
2022/04/19 05:54:54;;;;;;;1151.00;999.90;;;10.80;99.90;;;;;;5085268;28;20703;-70
2022/04/19 05:57:23;;;;;;;1138.73;999.90;;;11.00;99.90;;;;;;5058958;28;20185;-66
2022/04/19 05:59:48;;;;;;;1117.63;999.90;;;11.10;99.90;;;;;;5058479;28;20583;-67
2022/04/19 06:04:59;;;;;;;1087.43;995.55;;;11.50;99.90;;;;;;5076802;28;20254;-67
2022/04/19 06:07:27;;;;;;;1085.95;994.67;;;11.60;99.90;;;;;;5059393;28;20200;-66
2022/04/19 06:09:52;;;;;;;1046.70;969.47;;;11.70;99.90;;;;;;5058442;28;20199;-63
2022/04/19 06:12:21;;;;;;;1015.67;941.55;;;11.80;99.90;;;;;;5091676;28;20193;-63
2022/04/19 06:14:46;;;;;;;1038.40;961.10;;;11.80;99.90;;;;;;5092175;28;20775;-64
2022/04/19 06:17:14;;;;;;;1163.95;999.90;;;11.60;99.90;;;;;;5050531;28;20295;-66
2022/04/19 06:19:40;;;;;;;1390.05;999.90;;;11.90;99.90;;;;;;5078449;28;20185;-64
2022/04/19 06:22:09;;;;;;;1391.45;999.90;;;12.10;99.90;;;;;;5074232;28;20203;-64
2022/04/19 06:24:35;;;;;;;1355.70;999.90;;;12.30;99.90;;;;;;5079613;28;20725;-65
2022/04/19 06:27:01;;;;;;;1338.70;999.90;;;12.50;99.90;;;;;;5089814;28;20259;-66
2022/04/19 06:29:27;;;;;;;1314.82;999.90;;;12.80;99.90;;;;;;5093266;28;20272;-67
2022/04/19 06:31:56;;;;;;;1317.30;999.90;;;13.20;99.90;;;;;;5057231;28;20285;-67
2022/04/19 06:34:22;;;;;;;1300.55;999.90;;;13.10;99.90;;;;;;5092591;28;20209;-67
2022/04/19 06:36:47;;;;;;;1300.85;999.90;;;13.20;99.90;;;;;;5092441;28;20247;-67
2022/04/19 06:39:13;;;;;;;1303.97;999.90;;;12.90;99.90;;;;;;5073756;28;20193;-67
2022/04/19 06:41:41;;;;;;;1287.80;999.90;;;12.90;99.90;;;;;;5093368;28;20173;-71
2022/04/19 06:44:08;;;;;;;1268.85;999.90;;;13.20;99.90;;;;;;5075153;28;20192;-67
2022/04/19 06:46:36;;;;;;;1261.60;999.90;;;13.60;99.90;;;;;;5085868;28;20663;-67
2022/04/19 06:49:02;;;;;;;1270.65;999.90;;;13.80;99.90;;;;;;5089284;28;20184;-65
2022/04/19 06:51:30;;;;;;;1279.65;999.90;;;14.00;99.90;;;;;;5041620;28;20267;-66
2022/04/19 06:53:56;;;;;;;1260.55;999.90;;;14.10;99.90;;;;;;5074470;28;20673;-65
2022/04/19 06:56:22;;;;;;;1254.20;999.90;;;14.00;99.90;;;;;;5054268;28;20216;-68
2022/04/19 06:58:49;;;;;;;1265.90;999.90;;;13.80;99.90;;;;;;5058355;28;20188;-68
2022/04/19 07:01:15;;;;;;;1235.68;999.90;;;13.70;99.90;;;;;;5058419;28;20193;-68
2022/04/19 07:03:40;;;;;;;1254.10;999.90;;;13.50;99.90;;;;;;5073808;28;20199;-68
2022/04/19 07:06:11;;;;;;;1242.30;999.90;;;13.20;99.90;;;;;;5056381;28;20188;-71
2022/04/19 07:08:37;;;;;;;1234.05;999.90;;;13.50;99.90;;;;;;5075964;28;20200;-67
2022/04/19 07:11:03;;;;;;;1228.97;999.90;;;13.90;99.90;;;;;;5057078;28;20233;-68
2022/04/19 07:13:29;;;;;;;1225.95;999.90;;;14.00;99.90;;;;;;5094501;28;20176;-68
2022/04/19 07:15:55;;;;;;;1214.35;999.90;;;14.40;99.90;;;;;;5077806;28;20191;-68
2022/04/19 07:18:23;;;;;;;1195.07;999.90;;;14.50;99.90;;;;;;5060973;28;20189;-68
2022/04/19 07:29:03;;;;;;;1127.60;999.90;;;15.60;99.90;;;;;;5077090;28;20232;-68
2022/04/19 07:31:29;;;;;;;1140.05;999.90;;;15.90;99.90;;;;;;5085851;28;20204;-68
2022/04/19 07:33:54;;;;;;;1164.97;999.90;;;16.40;99.90;;;;;;5096300;28;20611;-68
2022/04/19 07:36:20;;;;;;;1200.65;999.90;;;16.90;99.90;;;;;;5077949;28;20185;-68
2022/04/19 07:38:46;;;;;;;1157.70;999.90;;;17.70;99.90;;;;;;5076828;28;20237;-68
2022/04/19 07:41:12;;;;;;;1053.70;978.40;;;17.70;99.90;;;;;;5077470;28;20173;-68
2022/04/19 07:43:38;;;;;;;1004.58;936.60;;;18.00;99.90;;;;;;5077783;28;20548;-68
2022/04/19 07:46:10;;;;;;;1007.88;938.28;;;18.50;99.90;;;;;;5077502;28;20334;-68
2022/04/19 07:48:36;;;;;;;993.65;925.45;;;19.10;99.90;;;;;;5078789;28;20180;-69
2022/04/19 07:51:01;;;;;;;864.72;811.10;;;20.30;99.90;;;;;;5095137;28;20187;-68
2022/04/19 07:53:27;;;;;;;805.20;756.72;;;21.20;99.90;;;;;;5061127;28;20694;-68
2022/04/19 07:55:55;;;;;;;807.83;759.05;;;22.10;99.90;;;;;;5077267;28;20710;-69
2022/04/19 07:58:21;;;;;;;761.38;716.95;;;22.70;99.90;;;;;;5095502;28;20191;-68
2022/04/19 08:00:46;;;;;;;724.22;682.92;;;23.00;99.90;;;;;;5060712;28;20205;-69
2022/04/19 08:03:12;;;;;;;674.15;638.05;;;23.80;99.90;;;;;;5075812;28;20173;-69
2022/04/19 08:05:39;;;;;;;647.13;613.40;;;23.80;99.90;;;;;;5041427;28;20268;-69
2022/04/19 08:08:05;;;;;;;628.38;596.60;;;23.90;99.90;;;;;;5075928;28;20627;-69
2022/04/19 08:10:30;;;;;;;636.58;604.33;;;24.70;99.90;;;;;;5072357;28;20227;-69
2022/04/19 08:12:56;;;;;;;616.63;586.22;;;24.40;99.90;;;;;;5078192;28;20185;-68
2022/04/19 08:15:23;;;;;;;615.58;584.95;;;23.80;99.90;;;;;;5077405;28;20223;-69
2022/04/19 08:17:49;;;;;;;617.65;586.83;;;23.10;99.90;;;;;;5077233;28;20267;-69
2022/04/19 08:20:15;;;;;;;642.67;609.83;;;22.10;99.90;;;;;;5076433;28;20279;-69
2022/04/19 08:22:42;;;;;;;648.13;615.55;;;22.20;99.90;;;;;;5095388;28;20602;-69
2022/04/19 08:25:10;;;;;;;674.75;639.65;;;22.00;99.90;;;;;;5094552;28;20180;-69
2022/04/19 08:27:45;;;;;;;626.20;595.63;;;22.80;99.90;;;;;;5076130;28;20618;-69
2022/04/19 08:30:12;;;;;;;658.38;625.55;;;22.00;99.90;;;;;;5095287;28;20236;-69
2022/04/19 08:32:38;;;;;;;684.15;649.13;;;21.10;99.90;;;;;;5060429;28;20330;-69
2022/04/19 08:35:05;;;;;;;717.17;679.47;;;21.10;99.90;;;;;;5075449;28;20693;-70
2022/04/19 08:37:34;;;;;;;727.53;689.00;;;20.60;99.90;;;;;;5055333;28;20296;-70
2022/04/19 08:40:00;;;;;;;810.15;762.97;;;19.70;99.90;;;;;;5061336;28;20196;-69
2022/04/19 08:42:29;;;;;;;826.75;778.03;;;19.40;99.90;;;;;;5076577;28;20180;-69
2022/04/19 08:44:58;;;;;;;841.05;790.42;;;19.60;99.90;;;;;;5076256;28;20545;-69
2022/04/19 08:47:25;;;;;;;850.80;799.55;;;19.80;99.90;;;;;;5060453;28;20211;-68
2022/04/19 08:49:53;;;;;;;864.85;812.42;;;20.00;99.90;;;;;;5094596;28;20258;-71
2022/04/19 08:52:20;;;;;;;856.38;804.60;;;20.10;99.90;;;;;;5083443;28;20185;-69
2022/04/19 08:57:31;;;;;;;869.70;816.60;;;19.90;99.90;;;;;;5065573;28;20192;-69
2022/04/19 08:59:57;;;;;;;868.42;815.55;;;19.70;99.90;;;;;;5076291;28;20204;-69
2022/04/19 09:02:29;;;;;;;850.67;799.67;;;19.90;99.90;;;;;;5075957;28;20651;-68
2022/04/19 09:05:10;;;;;;;862.95;810.80;;;19.80;99.90;;;;;;5094221;28;20189;-69
2022/04/19 09:07:37;;;;;;;908.78;852.60;;;19.00;99.90;;;;;;5076295;28;20526;-68
2022/04/19 09:10:03;;;;;;;942.97;883.30;;;18.80;99.90;;;;;;5075182;28;20200;-69
2022/04/19 09:12:29;;;;;;;959.38;898.13;;;18.50;99.90;;;;;;5094199;28;20236;-68
2022/04/19 09:15:06;;;;;;;965.38;903.60;;;18.70;99.90;;;;;;5075881;28;20212;-69
2022/04/19 09:17:40;;;;;;;955.25;894.70;;;19.30;99.90;;;;;;5058961;28;20264;-69
2022/04/19 09:20:18;;;;;;;954.88;894.15;;;19.60;99.90;;;;;;5094022;28;20185;-69
2022/04/19 09:22:48;;;;;;;944.50;885.05;;;19.50;99.90;;;;;;5092754;28;20271;-68
2022/04/19 09:25:20;;;;;;;945.95;886.28;;;19.40;99.90;;;;;;5093637;28;20716;-69
2022/04/19 09:27:49;;;;;;;966.05;904.38;;;19.40;99.90;;;;;;5093884;28;20195;-69
2022/04/19 09:30:29;;;;;;;960.60;899.10;;;19.20;99.90;;;;;;5075640;28;20188;-68
2022/04/19 09:33:09;;;;;;;977.08;914.08;;;19.30;99.90;;;;;;5094000;28;20196;-69
2022/04/19 09:35:40;;;;;;;972.03;909.63;;;19.10;99.90;;;;;;5056558;28;20766;-70
2022/04/19 09:38:10;;;;;;;981.45;917.80;;;19.40;99.90;;;;;;5083721;28;20188;-69
2022/04/19 09:40:46;;;;;;;968.80;906.65;;;19.50;99.90;;;;;;5092687;28;20524;-69
2022/04/19 09:43:20;;;;;;;957.72;896.53;;;19.70;99.90;;;;;;5093457;28;20214;-69
2022/04/19 09:45:50;;;;;;;959.28;898.33;;;19.10;99.90;;;;;;5093409;28;20533;-69
2022/04/19 09:48:17;;;;;;;963.50;902.10;;;19.10;99.90;;;;;;5056311;28;20638;-69
2022/04/19 09:50:57;;;;;;;966.65;904.97;;;18.70;99.90;;;;;;5091701;28;20636;-69
2022/04/19 09:53:25;;;;;;;958.90;898.10;;;18.80;99.90;;;;;;5093483;28;20261;-70
2022/04/19 09:55:54;;;;;;;960.65;899.97;;;18.70;99.90;;;;;;5075338;28;20637;-68
2022/04/19 09:58:20;;;;;;;961.97;900.72;;;18.50;99.90;;;;;;5093251;28;20649;-69
2022/04/19 10:00:47;;;;;;;991.03;926.83;;;18.30;99.90;;;;;;5093037;28;20249;-69
2022/04/19 10:08:38;;;;;;;1012.97;945.92;;;18.00;99.90;;;;;;5092907;28;20188;-67
2022/04/19 10:11:05;;;;;;;1015.25;948.28;;;18.00;99.90;;;;;;5075289;28;20184;-69
2022/04/19 10:13:33;;;;;;;1007.60;941.53;;;18.20;99.90;;;;;;5075198;28;20196;-69
2022/04/19 10:16:00;;;;;;;1007.83;941.42;;;18.40;99.90;;;;;;5074972;28;20181;-70
2022/04/19 10:18:26;;;;;;;1007.05;940.85;;;18.30;99.90;;;;;;5071794;28;20184;-69
2022/04/19 10:20:53;;;;;;;1012.75;946.08;;;18.40;99.90;;;;;;5067162;28;20659;-72
2022/04/19 10:23:19;;;;;;;988.03;924.13;;;18.70;99.90;;;;;;5093560;28;20259;-70
2022/04/19 10:25:48;;;;;;;983.95;920.30;;;18.60;99.90;;;;;;5057601;28;20235;-69
2022/04/19 10:28:27;;;;;;;998.70;933.53;;;18.70;99.90;;;;;;5092322;28;20216;-69
2022/04/19 10:30:53;;;;;;;981.90;918.80;;;18.70;99.90;;;;;;5062935;28;20185;-69
2022/04/19 10:33:53;;;;;;;973.63;911.00;;;18.70;99.90;;;;;;5092624;28;20185;-69
2022/04/19 10:36:39;;;;;;;984.13;920.60;;;18.70;99.90;;;;;;5076743;28;20189;-69
2022/04/19 10:39:11;;;;;;;984.67;920.83;;;18.60;99.90;;;;;;5074217;28;20176;-69
2022/04/19 10:41:47;;;;;;;994.03;929.35;;;18.50;99.90;;;;;;5062130;28;20219;-69
2022/04/19 10:44:35;;;;;;;1004.65;938.78;;;18.50;99.90;;;;;;5089999;28;20227;-68
2022/04/19 10:47:18;;;;;;;993.80;928.83;;;18.60;99.90;;;;;;5091154;28;20181;-70
2022/04/19 10:49:50;;;;;;;1004.85;938.67;;;18.80;99.90;;;;;;5074529;28;20538;-68
2022/04/19 10:52:43;;;;;;;997.03;931.70;;;19.00;99.90;;;;;;5072892;28;20207;-69
2022/04/19 10:55:22;;;;;;;1005.35;939.40;;;18.90;99.90;;;;;;5092674;28;20672;-69
2022/04/19 11:00:51;;;;;;;1000.83;935.20;;;19.00;99.90;;;;;;5086948;28;20296;-68
2022/04/19 11:03:49;;;;;;;1004.00;937.45;;;19.10;99.90;;;;;;5059706;28;20214;-69
2022/04/19 11:06:50;;;;;;;1007.67;941.60;;;19.40;99.90;;;;;;5065256;28;20189;-68
2022/04/19 11:09:22;;;;;;;1001.50;935.70;;;19.40;99.90;;;;;;4982099;28;20226;-69
2022/04/19 11:11:52;;;;;;;1003.20;937.53;;;19.30;99.90;;;;;;5074705;28;20661;-69
2022/04/19 11:14:21;;;;;;;1003.33;937.55;;;19.20;99.90;;;;;;5060091;28;20228;-69
2022/04/19 11:16:51;;;;;;;983.50;920.15;;;19.30;99.90;;;;;;5073865;28;20188;-69
2022/04/19 11:19:22;;;;;;;977.97;915.10;;;19.40;99.90;;;;;;5073220;28;20199;-71
2022/04/19 11:21:52;;;;;;;977.22;914.13;;;19.30;99.90;;;;;;5091733;28;20661;-69
2022/04/19 11:24:55;;;;;;;998.38;933.40;;;19.10;99.90;;;;;;5092283;28;20188;-67
2022/04/19 11:27:20;;;;;;;970.47;908.10;;;19.10;99.90;;;;;;5091282;28;20176;-69
2022/04/19 11:29:47;;;;;;;925.20;867.35;;;19.40;99.90;;;;;;5056615;28;20275;-73
2022/04/19 11:32:22;;;;;;;934.47;876.13;;;19.30;98.50;;;;;;5070822;28;20189;-69
2022/04/19 11:35:04;;;;;;;918.33;861.20;;;19.30;98.10;;;;;;5065812;28;20210;-69
2022/04/19 11:37:31;;;;;;;932.88;874.25;;;19.20;98.30;;;;;;5073539;28;20241;-68
2022/04/19 11:48:36;;;;;;;958.72;897.70;;;19.20;99.10;;;;;;5076386;28;20188;-69
2022/04/19 11:51:10;;;;;;;953.75;893.35;;;19.50;98.90;;;;;;5091672;28;20184;-68
2022/04/19 11:53:36;;;;;;;937.35;878.25;;;19.50;99.10;;;;;;5091729;28;20177;-67
2022/04/19 11:56:03;;;;;;;953.05;892.85;;;19.40;98.90;;;;;;5092157;28;20196;-68
2022/04/19 11:58:31;;;;;;;959.15;898.05;;;19.60;99.40;;;;;;5073181;28;20177;-67
2022/04/19 12:01:01;;;;;;;954.63;893.83;;;19.90;98.90;;;;;;5094187;28;20618;-68
2022/04/19 12:03:28;;;;;;;970.78;908.42;;;19.80;99.40;;;;;;5095868;28;20669;-68
2022/04/19 12:05:56;;;;;;;963.80;902.13;;;19.70;99.90;;;;;;5060616;28;20227;-69
2022/04/19 12:08:40;;;;;;;971.85;909.60;;;19.60;99.60;;;;;;5062800;28;20269;-68
2022/04/19 12:11:27;;;;;;;984.63;921.00;;;19.50;99.90;;;;;;5095376;28;20206;-68
2022/04/19 12:13:53;;;;;;;969.78;907.60;;;19.80;99.90;;;;;;5093013;28;20617;-68
2022/04/19 12:16:33;;;;;;;963.03;901.63;;;20.10;99.80;;;;;;5060141;28;20184;-68
2022/04/19 12:19:00;;;;;;;956.83;896.30;;;20.10;99.80;;;;;;5077311;28;20241;-68
2022/04/19 12:21:43;;;;;;;977.13;914.00;;;20.00;99.80;;;;;;5060392;28;20184;-68
2022/04/19 12:24:19;;;;;;;963.72;902.33;;;20.10;99.60;;;;;;5093466;28;20185;-68
2022/04/19 12:26:50;;;;;;;956.28;895.47;;;19.90;99.00;;;;;;5077359;28;20210;-67
2022/04/19 12:29:16;;;;;;;969.40;907.28;;;19.50;99.10;;;;;;5076718;28;20199;-68
2022/04/19 12:31:50;;;;;;;980.72;917.35;;;19.50;99.70;;;;;;5094181;28;20187;-68
2022/04/19 12:34:16;;;;;;;974.53;911.75;;;19.60;99.90;;;;;;5076868;28;20668;-68
2022/04/19 12:36:49;;;;;;;993.47;928.33;;;19.60;99.90;;;;;;5094217;28;20194;-68
2022/04/19 12:39:22;;;;;;;997.80;932.63;;;19.80;99.90;;;;;;5071770;28;20715;-68
2022/04/19 12:41:51;;;;;;;997.50;932.47;;;19.80;99.90;;;;;;5077504;28;20196;-68
2022/04/19 12:44:18;;;;;;;1011.35;944.78;;;19.50;99.90;;;;;;5094880;28;20219;-68
2022/04/19 12:46:50;;;;;;;1003.78;937.88;;;19.50;99.90;;;;;;5094489;28;20180;-68
2022/04/19 12:49:29;;;;;;;1007.15;941.03;;;19.60;99.90;;;;;;5076235;28;20587;-68
2022/04/19 12:52:03;;;;;;;999.58;934.42;;;19.70;99.90;;;;;;5067240;28;20276;-68
2022/04/19 12:54:30;;;;;;;991.88;927.35;;;19.80;99.90;;;;;;5075776;28;20207;-68